LEB weather

Lebanon Municipal Airport
Lebanon, New Hampshire, United States

Public forecast

Using degrees Fahrenheit for public forecast. Weather courtesy of forecast.io.

METAR (pilot weather report)

Retrieved 2019/05/21 11:53 UTC (35 minutes ago):

KLEB 211153Z 31009G18KT 10SM BKN046 12/03 A2979 RMK AO2 SLP084 60000 70039 T01170028 10139 20100 51018

TAF (pilot weather forecast)

Retrieved 2019/05/21 12:22 UTC (6 minutes ago):

TAF KLEB 211120Z 2112/2212 32007KT P6SM SCT030 OVC045 FM211300 31018G26KT P6SM OVC040 FM220500 VRB03KT P6SM SKC